Time;durP1;ratioP1;P1;durP2;ratioP2;P2;SDS_P1;SDS_P2;PMS_P1;PMS_P2;Temp;Humidity;BMP_temperature;BMP_pressure;BME280_temperature;BME280_humidity;BME280_pressure;Samples;Min_cycle;Max_cycle;Signal;HPM_P1;HPM_P2
2022/03/20 00:01:49;;;;;;;1.33;0.80;;;16.80;52.10;;;;;;5218887;28;20197;-64
2022/03/20 00:04:42;;;;;;;0.80;0.80;;;16.80;52.10;;;;;;5225338;28;20212;-61
2022/03/20 00:07:35;;;;;;;1.23;0.80;;;16.80;52.10;;;;;;5226484;28;20716;-64
2022/03/20 00:10:27;;;;;;;2.07;1.17;;;16.80;52.10;;;;;;5226134;28;20277;-63
2022/03/20 00:13:21;;;;;;;1.10;1.00;;;16.80;52.10;;;;;;5224818;28;20206;-64
2022/03/20 00:16:13;;;;;;;1.70;0.90;;;16.80;52.20;;;;;;5224416;28;20583;-64
2022/03/20 00:19:05;;;;;;;1.10;0.90;;;16.80;52.20;;;;;;5225834;28;20193;-64
2022/03/20 00:21:59;;;;;;;1.47;0.90;;;16.80;52.20;;;;;;5224726;28;20280;-64
2022/03/20 00:24:51;;;;;;;1.57;1.10;;;16.80;52.20;;;;;;5225897;28;20561;-64
2022/03/20 00:27:44;;;;;;;1.43;1.10;;;16.80;52.20;;;;;;5225845;28;20355;-62
2022/03/20 00:30:37;;;;;;;1.40;0.97;;;16.80;52.30;;;;;;5225528;28;20193;-64
2022/03/20 00:33:29;;;;;;;1.63;0.90;;;16.80;52.30;;;;;;5225402;28;20201;-64
2022/03/20 00:36:21;;;;;;;2.00;1.10;;;16.80;52.30;;;;;;5224327;28;20656;-64
2022/03/20 00:39:15;;;;;;;1.60;1.10;;;16.80;52.30;;;;;;5224457;28;20197;-64
2022/03/20 00:42:07;;;;;;;1.60;1.07;;;16.80;52.30;;;;;;5225077;28;20197;-64
2022/03/20 00:44:59;;;;;;;1.33;0.90;;;16.80;52.30;;;;;;5228849;28;20588;-64
2022/03/20 00:47:51;;;;;;;1.30;1.03;;;16.80;52.30;;;;;;5228999;28;20216;-64
2022/03/20 00:50:43;;;;;;;1.70;0.90;;;16.80;52.40;;;;;;5220250;28;20197;-63
2022/03/20 00:53:36;;;;;;;1.57;0.93;;;16.80;52.40;;;;;;5229267;28;20676;-64
2022/03/20 00:56:29;;;;;;;1.43;1.00;;;16.80;52.40;;;;;;5229207;28;20688;-64
2022/03/20 00:59:21;;;;;;;2.00;0.90;;;16.80;52.50;;;;;;5229614;28;20226;-65
2022/03/20 01:02:15;;;;;;;1.97;1.20;;;16.80;52.50;;;;;;5228931;28;20818;-64
2022/03/20 01:05:08;;;;;;;1.30;1.13;;;16.80;52.50;;;;;;5229025;28;20213;-64
2022/03/20 01:08:00;;;;;;;1.73;1.23;;;16.80;52.50;;;;;;5228555;28;20213;-64
2022/03/20 01:10:52;;;;;;;2.10;1.20;;;16.80;52.50;;;;;;5228025;28;20582;-63
2022/03/20 01:13:46;;;;;;;1.50;1.00;;;16.80;52.50;;;;;;5228122;28;20239;-61
2022/03/20 01:16:38;;;;;;;1.43;1.00;;;16.80;52.50;;;;;;5225287;28;20219;-64
2022/03/20 01:19:31;;;;;;;2.03;1.40;;;16.80;52.50;;;;;;5222980;28;20201;-64
2022/03/20 01:22:23;;;;;;;2.60;1.33;;;16.80;52.50;;;;;;5226932;28;20201;-64
2022/03/20 01:25:18;;;;;;;1.20;1.10;;;16.90;52.60;;;;;;5229195;28;20224;-64
2022/03/20 01:28:10;;;;;;;2.37;1.67;;;16.80;52.60;;;;;;5228432;28;20715;-64
2022/03/20 01:31:04;;;;;;;2.03;1.20;;;16.80;52.60;;;;;;5228436;28;20197;-63
2022/03/20 01:33:56;;;;;;;2.13;1.30;;;16.80;52.60;;;;;;5227055;28;20200;-64
2022/03/20 01:36:48;;;;;;;1.50;1.20;;;16.80;52.50;;;;;;5228621;28;20213;-63
2022/03/20 01:39:40;;;;;;;2.07;1.27;;;16.90;52.60;;;;;;5227730;28;20197;-64
2022/03/20 01:42:32;;;;;;;1.70;1.20;;;16.80;52.60;;;;;;5226370;28;20668;-64
2022/03/20 01:45:26;;;;;;;1.80;1.60;;;16.80;52.60;;;;;;5223115;28;20666;-64
2022/03/20 01:48:19;;;;;;;1.53;1.10;;;16.80;52.60;;;;;;5227013;28;20231;-64
2022/03/20 01:51:12;;;;;;;1.43;1.10;;;16.80;52.60;;;;;;5227727;28;20197;-64
2022/03/20 01:54:05;;;;;;;1.53;1.10;;;16.90;52.70;;;;;;5226184;28;20200;-64
2022/03/20 01:56:57;;;;;;;1.30;1.20;;;16.80;52.60;;;;;;5227561;28;20227;-64
2022/03/20 01:59:50;;;;;;;2.43;1.30;;;16.90;52.70;;;;;;5228412;28;20280;-63
2022/03/20 02:02:42;;;;;;;2.03;1.20;;;16.80;52.60;;;;;;5226138;28;20665;-62
2022/03/20 02:05:37;;;;;;;1.77;1.23;;;16.80;52.70;;;;;;5227227;28;20213;-64
2022/03/20 02:08:33;;;;;;;1.67;1.47;;;16.80;52.70;;;;;;5227872;28;20715;-64
2022/03/20 02:11:26;;;;;;;2.10;1.30;;;16.80;52.70;;;;;;5227048;28;20189;-64
2022/03/20 02:14:18;;;;;;;2.30;1.20;;;16.90;52.70;;;;;;5227986;28;20198;-64
2022/03/20 02:17:11;;;;;;;2.23;1.53;;;16.90;52.70;;;;;;5220051;28;20218;-64
2022/03/20 02:20:08;;;;;;;2.33;1.37;;;16.80;52.70;;;;;;5216765;28;20203;-64
2022/03/20 02:23:01;;;;;;;1.87;1.37;;;16.80;52.70;;;;;;5227671;28;20185;-64
2022/03/20 02:25:54;;;;;;;1.63;1.40;;;16.80;52.70;;;;;;5226646;28;20212;-63
2022/03/20 02:28:47;;;;;;;1.37;1.20;;;16.80;52.70;;;;;;5227521;28;20323;-61
2022/03/20 02:31:39;;;;;;;1.80;1.40;;;16.80;52.80;;;;;;5227460;28;20232;-64
2022/03/20 02:34:31;;;;;;;2.03;1.73;;;16.80;52.80;;;;;;5226805;28;20583;-63
2022/03/20 02:37:25;;;;;;;2.13;1.70;;;16.80;52.80;;;;;;5227239;28;20607;-64
2022/03/20 02:40:21;;;;;;;1.83;1.50;;;16.80;52.80;;;;;;5227375;28;20652;-64
2022/03/20 02:43:13;;;;;;;1.70;1.47;;;16.80;52.80;;;;;;5227185;28;20189;-64
2022/03/20 02:46:05;;;;;;;1.93;1.40;;;16.90;52.80;;;;;;5227192;28;20601;-64
2022/03/20 02:48:59;;;;;;;2.17;1.83;;;16.80;52.80;;;;;;5226502;28;20193;-64
2022/03/20 02:51:51;;;;;;;2.80;1.90;;;16.80;52.80;;;;;;5225881;28;20262;-64
2022/03/20 02:54:43;;;;;;;1.60;1.40;;;16.80;52.80;;;;;;5227024;28;20280;-60
2022/03/20 02:57:36;;;;;;;2.17;1.60;;;16.80;52.80;;;;;;5226154;28;20356;-64
2022/03/20 03:00:31;;;;;;;2.40;1.70;;;16.80;52.80;;;;;;5225776;28;20676;-64
2022/03/20 03:03:23;;;;;;;2.77;1.40;;;16.80;52.80;;;;;;5225059;28;20247;-64
2022/03/20 03:06:16;;;;;;;2.97;1.80;;;16.80;52.80;;;;;;5226121;28;20217;-63
2022/03/20 03:12:17;;;;;;;2.17;1.50;;;16.80;52.80;;;;;;5225760;28;20199;-64
2022/03/20 03:15:20;;;;;;;2.97;1.60;;;16.90;52.90;;;;;;5225853;28;20193;-64
2022/03/20 03:18:12;;;;;;;2.33;1.70;;;16.80;52.80;;;;;;5226796;28;20595;-63
2022/03/20 03:21:05;;;;;;;2.57;1.80;;;16.80;52.90;;;;;;5225780;28;20238;-63
2022/03/20 03:23:58;;;;;;;2.17;1.57;;;16.80;52.80;;;;;;5226749;28;20580;-64
2022/03/20 03:26:50;;;;;;;1.87;1.37;;;16.80;52.80;;;;;;5226163;28;20283;-64
2022/03/20 03:29:42;;;;;;;2.10;1.90;;;16.90;52.90;;;;;;5226194;28;20207;-63
2022/03/20 03:32:36;;;;;;;3.30;2.07;;;16.80;52.80;;;;;;5222929;28;20201;-64
2022/03/20 03:35:43;;;;;;;1.93;1.70;;;16.90;53.00;;;;;;5226563;28;20205;-64
2022/03/20 03:38:35;;;;;;;1.93;1.40;;;16.80;52.80;;;;;;5226760;28;20207;-64
2022/03/20 03:41:27;;;;;;;2.07;1.80;;;16.80;52.90;;;;;;5225327;28;20197;-64
2022/03/20 03:44:19;;;;;;;2.00;1.70;;;16.90;52.90;;;;;;5220324;28;20604;-64
2022/03/20 03:47:11;;;;;;;2.00;1.80;;;16.80;52.90;;;;;;5249961;22;20232;-66
2022/03/20 03:50:05;;;;;;;2.30;2.00;;;16.80;52.90;;;;;;5222263;28;20215;-66
2022/03/20 03:52:57;;;;;;;2.37;1.90;;;16.80;52.90;;;;;;5215863;28;20197;-66
2022/03/20 03:55:49;;;;;;;2.50;2.30;;;16.80;52.90;;;;;;5218768;28;20193;-66
2022/03/20 03:58:43;;;;;;;2.17;1.90;;;16.80;52.80;;;;;;5205542;28;20652;-66
2022/03/20 04:01:35;;;;;;;2.47;1.90;;;16.80;52.80;;;;;;5207233;28;20198;-65
2022/03/20 04:04:27;;;;;;;2.70;1.80;;;16.80;52.90;;;;;;5215200;28;20193;-65
2022/03/20 04:07:21;;;;;;;3.83;2.07;;;16.80;52.90;;;;;;5212507;28;20222;-65
2022/03/20 04:10:13;;;;;;;2.33;1.93;;;16.80;52.90;;;;;;5205680;28;20245;-66
2022/03/20 04:13:05;;;;;;;4.50;2.30;;;16.80;52.90;;;;;;5206413;28;20566;-65
2022/03/20 04:15:58;;;;;;;2.27;2.07;;;16.80;52.90;;;;;;5207590;28;20190;-66
2022/03/20 04:18:50;;;;;;;2.93;2.10;;;16.80;52.90;;;;;;5206599;28;20217;-66
2022/03/20 04:21:43;;;;;;;2.20;2.00;;;16.80;52.90;;;;;;5224336;28;20620;-65
2022/03/20 04:24:37;;;;;;;2.90;2.20;;;16.80;52.80;;;;;;5224867;28;20201;-66
2022/03/20 04:27:30;;;;;;;2.50;2.30;;;16.80;52.90;;;;;;5222268;28;20213;-66
2022/03/20 04:30:24;;;;;;;2.77;1.97;;;16.80;52.90;;;;;;5221285;28;20201;-66
2022/03/20 04:33:17;;;;;;;2.30;2.10;;;16.80;52.90;;;;;;5226659;28;20196;-65
2022/03/20 04:36:09;;;;;;;2.33;2.00;;;16.80;52.80;;;;;;5210327;28;20221;-65
2022/03/20 04:39:01;;;;;;;3.03;2.50;;;16.80;52.90;;;;;;5205914;28;20214;-65
2022/03/20 04:41:55;;;;;;;2.77;2.50;;;16.80;52.90;;;;;;5206076;28;20229;-65
2022/03/20 04:44:47;;;;;;;2.33;2.07;;;16.80;52.90;;;;;;5213395;28;20197;-65
2022/03/20 05:00:20;;;;;;;5.77;2.83;;;16.80;52.90;;;;;;5225797;28;20262;-65
2022/03/20 05:03:12;;;;;;;2.97;2.30;;;16.80;52.80;;;;;;5216656;28;20197;-65
2022/03/20 05:06:05;;;;;;;2.83;2.30;;;16.80;52.90;;;;;;5225778;28;20221;-65
2022/03/20 05:13:19;;;;;;;3.27;2.50;;;16.80;52.90;;;;;;5207509;28;20218;-65
2022/03/20 05:15:21;;;;;;;2.50;2.30;;;16.80;52.90;;;;;;5222719;28;20281;-65
2022/03/20 05:18:14;;;;;;;3.33;2.50;;;16.80;52.90;;;;;;5214821;28;20214;-65
2022/03/20 05:21:06;;;;;;;4.93;2.87;;;16.80;52.90;;;;;;5207394;28;20327;-66
2022/03/20 05:23:58;;;;;;;2.57;2.20;;;16.80;52.90;;;;;;5208621;28;20212;-65
2022/03/20 05:26:51;;;;;;;2.50;2.30;;;16.80;52.90;;;;;;5220366;28;20221;-65
2022/03/20 05:29:44;;;;;;;2.60;2.40;;;16.80;52.90;;;;;;5228404;28;20201;-65
2022/03/20 05:32:38;;;;;;;3.07;2.27;;;16.80;52.90;;;;;;5223299;28;20200;-65
2022/03/20 05:35:31;;;;;;;3.63;2.77;;;16.80;52.90;;;;;;5228386;28;20200;-65
2022/03/20 05:38:23;;;;;;;3.67;2.80;;;16.80;52.90;;;;;;5209651;28;20222;-65
2022/03/20 05:44:26;;;;;;;2.93;2.33;;;16.80;53.00;;;;;;5208267;28;20186;-65
2022/03/20 05:47:20;;;;;;;3.27;2.73;;;16.80;53.00;;;;;;5208122;28;20627;-65
2022/03/20 05:50:12;;;;;;;2.63;2.30;;;16.80;52.90;;;;;;5211325;28;20201;-65
2022/03/20 05:53:04;;;;;;;3.57;2.60;;;16.80;53.00;;;;;;5207404;28;20209;-65
2022/03/20 05:59:06;;;;;;;4.00;2.73;;;16.80;52.90;;;;;;5206649;28;20968;-65
2022/03/20 06:01:59;;;;;;;3.43;2.70;;;16.80;52.90;;;;;;5210652;28;20568;-65
2022/03/20 06:04:53;;;;;;;3.60;2.80;;;16.80;52.90;;;;;;5219109;28;20794;-65
2022/03/20 06:07:47;;;;;;;3.17;2.60;;;16.80;52.90;;;;;;5218075;28;20232;-64
2022/03/20 06:10:39;;;;;;;3.07;2.77;;;16.80;52.90;;;;;;5208468;28;20199;-64
2022/03/20 06:13:35;;;;;;;4.07;2.50;;;16.80;52.90;;;;;;5208007;28;20277;-64
2022/03/20 06:16:28;;;;;;;3.27;2.97;;;16.90;53.00;;;;;;5208310;28;20186;-64
2022/03/20 06:19:20;;;;;;;3.43;3.03;;;16.90;52.90;;;;;;5208819;28;20190;-64
2022/03/20 06:22:13;;;;;;;4.33;3.27;;;16.90;53.00;;;;;;5212765;28;20189;-65
2022/03/20 06:25:08;;;;;;;3.67;2.67;;;16.90;53.00;;;;;;5228240;28;20204;-64
2022/03/20 06:28:01;;;;;;;3.30;2.67;;;16.90;52.90;;;;;;5208479;28;20217;-65
2022/03/20 06:30:54;;;;;;;3.20;2.70;;;16.90;53.00;;;;;;5206869;28;20236;-64
2022/03/20 06:33:46;;;;;;;4.63;3.30;;;16.90;53.00;;;;;;5207250;28;20194;-64
2022/03/20 06:36:39;;;;;;;3.43;3.13;;;16.90;52.90;;;;;;5207638;28;20213;-64
2022/03/20 06:39:32;;;;;;;3.73;2.63;;;16.90;52.90;;;;;;5206050;28;20194;-64
2022/03/20 06:42:25;;;;;;;3.70;2.63;;;16.90;52.90;;;;;;5214373;28;20206;-64
2022/03/20 06:45:19;;;;;;;3.57;2.90;;;16.90;53.00;;;;;;5210297;28;20197;-64
2022/03/20 06:48:12;;;;;;;3.63;3.20;;;16.90;52.90;;;;;;5213707;28;20416;-64
2022/03/20 06:51:04;;;;;;;3.50;2.90;;;16.90;52.90;;;;;;5217754;28;20678;-64
2022/03/20 06:53:56;;;;;;;4.20;3.13;;;16.90;52.90;;;;;;5218945;28;20682;-64
2022/03/20 06:56:50;;;;;;;3.33;2.90;;;16.90;52.80;;;;;;5208766;28;20204;-64
2022/03/20 06:59:42;;;;;;;3.90;3.13;;;16.90;52.90;;;;;;5227685;28;20193;-64
2022/03/20 07:02:34;;;;;;;3.20;2.90;;;16.90;52.90;;;;;;5227379;28;20197;-64
2022/03/20 07:05:27;;;;;;;3.17;2.87;;;16.90;53.00;;;;;;5227716;28;20194;-64
2022/03/20 07:08:19;;;;;;;3.67;2.93;;;16.90;53.00;;;;;;5227735;28;20600;-64
2022/03/20 07:11:11;;;;;;;3.83;3.37;;;16.90;53.00;;;;;;5221673;28;20248;-64
2022/03/20 07:14:05;;;;;;;4.10;2.80;;;16.90;53.00;;;;;;5226954;28;20557;-64
2022/03/20 07:16:57;;;;;;;4.67;3.10;;;16.90;52.90;;;;;;5226827;28;20679;-64
2022/03/20 07:19:49;;;;;;;3.17;2.70;;;16.90;53.00;;;;;;5226109;28;20197;-63
2022/03/20 07:22:41;;;;;;;3.50;2.80;;;16.90;53.00;;;;;;5220593;28;20276;-64
2022/03/20 07:31:53;;;;;;;3.40;3.10;;;16.90;53.10;;;;;;5226824;28;20177;-64
2022/03/20 07:34:46;;;;;;;3.13;2.80;;;16.90;53.10;;;;;;5225728;28;20562;-64
2022/03/20 07:37:39;;;;;;;3.60;2.87;;;16.90;53.10;;;;;;5216865;28;20434;-64
2022/03/20 07:40:31;;;;;;;3.23;2.73;;;16.90;53.10;;;;;;5214527;28;20289;-64
2022/03/20 07:43:23;;;;;;;3.93;2.73;;;16.90;53.20;;;;;;5205671;28;20577;-64
2022/03/20 07:46:15;;;;;;;3.97;3.30;;;16.90;53.30;;;;;;5223804;28;20204;-64
2022/03/20 07:49:09;;;;;;;3.63;2.97;;;16.90;53.30;;;;;;5229602;28;20220;-65
2022/03/20 07:52:01;;;;;;;3.70;3.20;;;16.90;53.30;;;;;;5207151;28;20245;-64
2022/03/20 07:54:53;;;;;;;4.40;2.87;;;16.90;53.30;;;;;;5218008;28;20271;-66
2022/03/20 07:57:45;;;;;;;4.57;2.93;;;16.90;53.30;;;;;;5216482;28;20253;-65
2022/03/20 08:00:39;;;;;;;3.20;2.83;;;16.90;53.30;;;;;;5205741;28;20208;-66
2022/03/20 08:03:31;;;;;;;3.60;3.00;;;16.90;53.30;;;;;;5206545;28;20194;-66
2022/03/20 08:06:24;;;;;;;4.07;2.90;;;16.90;53.30;;;;;;5206553;28;20194;-65
2022/03/20 08:09:16;;;;;;;3.53;3.10;;;16.90;53.40;;;;;;5206618;28;20214;-65
2022/03/20 08:12:09;;;;;;;4.40;3.27;;;16.90;53.30;;;;;;5206023;28;20208;-66
2022/03/20 08:15:02;;;;;;;3.77;3.20;;;16.90;53.30;;;;;;5205704;28;20592;-65
2022/03/20 08:17:55;;;;;;;4.27;3.23;;;16.90;53.40;;;;;;5211793;28;20596;-65
2022/03/20 08:20:47;;;;;;;3.83;3.00;;;16.90;53.40;;;;;;5210759;28;20197;-65
2022/03/20 08:23:41;;;;;;;4.03;3.00;;;16.90;53.40;;;;;;5208403;28;20198;-65
2022/03/20 08:26:33;;;;;;;4.63;3.10;;;16.90;53.50;;;;;;5206457;28;20276;-65
2022/03/20 08:29:26;;;;;;;4.80;3.10;;;16.90;53.50;;;;;;5205926;28;20205;-65
2022/03/20 08:32:19;;;;;;;3.87;3.00;;;16.90;53.50;;;;;;5205900;28;20284;-65
2022/03/20 08:35:14;;;;;;;3.30;3.00;;;16.90;53.50;;;;;;5206070;28;20213;-65
2022/03/20 08:38:06;;;;;;;3.97;2.80;;;16.90;53.70;;;;;;5206387;28;20229;-65
2022/03/20 08:41:00;;;;;;;4.47;3.63;;;16.90;53.80;;;;;;5217460;28;20553;-65
2022/03/20 08:43:52;;;;;;;3.43;2.83;;;16.90;53.80;;;;;;5223107;28;20272;-65
2022/03/20 08:46:44;;;;;;;5.20;3.77;;;16.90;53.80;;;;;;5213993;28;20205;-65
2022/03/20 08:49:36;;;;;;;3.47;2.90;;;16.90;53.80;;;;;;5216486;28;20200;-67
2022/03/20 08:52:28;;;;;;;4.30;3.40;;;16.90;53.90;;;;;;5219113;28;20685;-65
2022/03/20 08:55:20;;;;;;;3.87;3.27;;;16.90;53.80;;;;;;5211218;28;20185;-65
2022/03/20 08:58:14;;;;;;;3.33;3.03;;;16.90;53.70;;;;;;5215589;28;20215;-65
2022/03/20 09:01:07;;;;;;;3.67;3.20;;;16.90;53.80;;;;;;5213315;28;20605;-64
2022/03/20 09:04:00;;;;;;;5.83;4.20;;;17.00;53.80;;;;;;5216935;28;20229;-64
2022/03/20 09:06:52;;;;;;;4.13;3.30;;;17.00;53.80;;;;;;5216600;28;20597;-64
2022/03/20 09:09:44;;;;;;;4.13;3.63;;;16.90;53.60;;;;;;5209805;28;20228;-64
2022/03/20 09:12:38;;;;;;;5.23;3.90;;;17.00;53.70;;;;;;5207001;28;20201;-65
2022/03/20 09:15:32;;;;;;;4.53;3.60;;;16.90;53.70;;;;;;5209509;28;20202;-65
2022/03/20 09:21:36;;;;;;;5.07;3.73;;;16.90;53.80;;;;;;5206055;28;20195;-65
2022/03/20 09:24:28;;;;;;;5.20;3.57;;;17.00;53.90;;;;;;5207981;28;20197;-65
2022/03/20 09:27:22;;;;;;;4.77;3.87;;;17.00;54.50;;;;;;5208881;28;20217;-65
2022/03/20 09:30:15;;;;;;;5.13;3.53;;;17.00;53.80;;;;;;5217754;28;20569;-65
2022/03/20 09:33:09;;;;;;;4.10;3.50;;;17.00;53.90;;;;;;5219020;28;20691;-65
2022/03/20 09:36:01;;;;;;;5.47;4.50;;;17.00;54.00;;;;;;5225926;28;20201;-65
2022/03/20 09:38:53;;;;;;;5.27;4.27;;;17.00;53.90;;;;;;5228616;28;20604;-65
2022/03/20 09:41:48;;;;;;;4.73;3.90;;;17.00;54.00;;;;;;5221031;28;20268;-65
2022/03/20 09:44:41;;;;;;;5.07;4.10;;;17.00;54.00;;;;;;5228189;28;20201;-64
2022/03/20 09:50:13;;;;;;;5.13;3.90;;;17.00;54.20;;;;;;5239433;28;20258;-65
2022/03/20 09:53:05;;;;;;;5.33;3.83;;;17.00;54.10;;;;;;5245661;28;20197;-64
2022/03/20 09:55:58;;;;;;;5.20;4.03;;;17.00;53.90;;;;;;5248101;28;20193;-64
2022/03/20 09:58:50;;;;;;;6.80;4.80;;;17.00;53.90;;;;;;5255811;28;20212;-64
2022/03/20 10:01:42;;;;;;;6.70;3.97;;;17.00;53.50;;;;;;5259078;28;20184;-64
2022/03/20 10:04:52;;;;;;;8.33;4.50;;;17.00;53.60;;;;;;5239782;28;20689;-64
2022/03/20 10:07:45;;;;;;;7.83;4.83;;;17.00;53.60;;;;;;5248674;28;20211;-64
2022/03/20 10:10:38;;;;;;;6.07;4.80;;;17.00;53.60;;;;;;5259728;28;20671;-65
2022/03/20 10:13:30;;;;;;;7.40;4.57;;;17.00;53.50;;;;;;5268253;28;20607;-65
2022/03/20 10:16:22;;;;;;;5.43;4.37;;;17.00;53.50;;;;;;5268675;28;20198;-64
2022/03/20 10:19:31;;;;;;;6.47;5.20;;;17.00;53.60;;;;;;5268435;28;20348;-65
2022/03/20 10:22:23;;;;;;;7.70;5.10;;;17.00;53.80;;;;;;5225855;28;20201;-65
2022/03/20 10:25:20;;;;;;;5.63;4.50;;;17.00;54.00;;;;;;5249732;28;20201;-65
2022/03/20 10:28:13;;;;;;;5.60;4.43;;;17.00;54.00;;;;;;5247154;28;20224;-65
2022/03/20 10:31:08;;;;;;;5.97;4.37;;;17.00;54.00;;;;;;5246523;28;20196;-65
2022/03/20 10:34:01;;;;;;;5.77;4.60;;;17.00;54.00;;;;;;5246866;28;20196;-63
2022/03/20 10:36:54;;;;;;;5.87;5.03;;;17.00;53.80;;;;;;5247818;28;20200;-63
2022/03/20 10:39:46;;;;;;;6.87;4.63;;;17.10;53.60;;;;;;5247926;28;20699;-64
2022/03/20 10:42:40;;;;;;;9.13;5.17;;;17.00;53.50;;;;;;5259619;28;20196;-64
2022/03/20 10:45:32;;;;;;;7.83;5.00;;;17.00;53.30;;;;;;5251331;28;20196;-63
2022/03/20 10:48:36;;;;;;;7.03;5.43;;;17.00;53.40;;;;;;5247274;28;20221;-63
2022/03/20 10:51:37;;;;;;;7.33;5.40;;;17.00;53.30;;;;;;5264827;28;20196;-66
2022/03/20 10:54:40;;;;;;;5.90;5.00;;;17.00;53.60;;;;;;5267593;28;20195;-66
2022/03/20 10:57:34;;;;;;;5.23;4.60;;;17.00;53.60;;;;;;5263849;28;20207;-67
2022/03/20 11:00:27;;;;;;;7.73;5.53;;;17.00;53.50;;;;;;5248788;28;20202;-66
2022/03/20 11:03:22;;;;;;;6.77;5.13;;;17.00;53.50;;;;;;5266291;28;20574;-66
2022/03/20 11:06:15;;;;;;;6.77;5.20;;;17.00;53.50;;;;;;5246709;28;20196;-66
2022/03/20 11:09:07;;;;;;;7.17;5.13;;;17.00;53.40;;;;;;5245282;28;20611;-66
2022/03/20 11:12:03;;;;;;;6.30;5.00;;;17.00;53.30;;;;;;5246007;28;20196;-66
2022/03/20 11:14:59;;;;;;;6.97;5.27;;;17.10;53.30;;;;;;5244911;28;20188;-67
2022/03/20 11:17:54;;;;;;;8.07;5.27;;;17.00;53.20;;;;;;5248127;28;20287;-67
2022/03/20 11:20:47;;;;;;;6.47;5.60;;;17.10;53.10;;;;;;5243760;28;20192;-66
2022/03/20 11:23:39;;;;;;;6.70;5.10;;;17.00;53.00;;;;;;5245971;28;20201;-66
2022/03/20 11:26:33;;;;;;;6.17;5.17;;;17.00;52.80;;;;;;5243955;28;20188;-66
2022/03/20 11:29:27;;;;;;;6.73;5.47;;;17.10;52.90;;;;;;5245889;28;20220;-66
2022/03/20 11:32:20;;;;;;;6.53;5.07;;;17.10;52.90;;;;;;5246530;28;20192;-66
2022/03/20 11:35:14;;;;;;;7.27;5.57;;;17.10;52.70;;;;;;5244148;28;20199;-66
2022/03/20 11:38:19;;;;;;;5.90;4.87;;;17.10;52.70;;;;;;5250049;28;20208;-67
2022/03/20 11:41:14;;;;;;;6.00;4.73;;;17.10;52.60;;;;;;5245317;28;20207;-66
2022/03/20 11:44:20;;;;;;;7.63;5.50;;;17.10;52.60;;;;;;5245393;28;20192;-67
2022/03/20 11:47:27;;;;;;;7.97;6.22;;;17.10;52.20;;;;;;5244618;28;20446;-67
2022/03/20 11:50:23;;;;;;;23.17;15.27;;;17.20;51.70;;;;;;5254005;28;20196;-68
2022/03/20 11:53:27;;;;;;;169.60;65.65;;;17.20;51.70;;;;;;5244848;28;20419;-67
2022/03/20 11:56:30;;;;;;;156.23;66.07;;;17.20;51.50;;;;;;5244126;28;20421;-66
2022/03/20 11:59:50;;;;;;;225.17;91.93;;;17.40;51.60;;;;;;5245790;28;20687;-66
2022/03/20 12:02:57;;;;;;;183.93;72.07;;;17.30;51.90;;;;;;5210500;28;20200;-66
2022/03/20 12:06:30;;;;;;;137.07;56.93;;;17.30;52.10;;;;;;5245210;28;20195;-66
2022/03/20 12:09:38;;;;;;;181.35;52.92;;;17.30;51.80;;;;;;5245955;28;20483;-66
2022/03/20 12:13:11;;;;;;;140.93;42.73;;;17.20;50.00;;;;;;5245552;28;20205;-65
2022/03/20 12:16:04;;;;;;;90.60;36.57;;;17.20;50.80;;;;;;5246514;28;20189;-66
2022/03/20 12:19:09;;;;;;;87.03;34.27;;;17.20;51.20;;;;;;5246391;28;20208;-65
2022/03/20 12:22:04;;;;;;;82.83;32.87;;;17.20;51.50;;;;;;5246202;28;20548;-65
2022/03/20 12:24:58;;;;;;;71.30;28.97;;;17.20;51.70;;;;;;5244773;28;20196;-63
2022/03/20 12:27:50;;;;;;;70.60;29.13;;;17.20;51.90;;;;;;5244848;28;20216;-65
2022/03/20 12:30:46;;;;;;;59.23;24.83;;;17.20;52.00;;;;;;5245162;28;20752;-66
2022/03/20 12:33:38;;;;;;;57.40;23.27;;;17.20;52.10;;;;;;5246206;28;20192;-67
2022/03/20 12:36:30;;;;;;;55.08;24.52;;;17.20;52.20;;;;;;5248517;28;20424;-67
2022/03/20 12:39:49;;;;;;;50.53;20.73;;;17.20;52.20;;;;;;5245793;28;20216;-65
2022/03/20 12:42:43;;;;;;;43.57;18.80;;;17.20;52.30;;;;;;5228669;28;20208;-64
2022/03/20 12:45:38;;;;;;;41.43;18.03;;;17.20;52.50;;;;;;5247324;28;20290;-65
2022/03/20 12:48:32;;;;;;;36.40;17.37;;;17.20;52.50;;;;;;5248202;28;20266;-65
2022/03/20 12:51:33;;;;;;;35.33;15.57;;;17.20;52.40;;;;;;5248236;28;20281;-65
2022/03/20 12:54:25;;;;;;;32.70;15.47;;;17.20;52.50;;;;;;5247252;28;20215;-65
2022/03/20 12:57:19;;;;;;;28.87;14.70;;;17.20;53.10;;;;;;5248769;28;20552;-67
2022/03/20 13:00:14;;;;;;;32.17;14.93;;;17.20;52.50;;;;;;5248463;28;20187;-64
2022/03/20 13:03:09;;;;;;;34.70;14.33;;;17.20;52.60;;;;;;5248192;28;20200;-65
2022/03/20 13:06:03;;;;;;;26.07;12.90;;;17.20;52.60;;;;;;5229617;28;20197;-65
2022/03/20 13:08:55;;;;;;;28.90;12.57;;;17.20;52.60;;;;;;5228738;28;20217;-65
2022/03/20 13:11:51;;;;;;;23.73;11.90;;;17.20;52.70;;;;;;5228369;28;20668;-65
2022/03/20 13:14:51;;;;;;;26.17;12.37;;;17.20;52.70;;;;;;5262025;28;20754;-65
2022/03/20 13:17:47;;;;;;;28.63;12.80;;;17.20;52.70;;;;;;5247577;28;20193;-61
2022/03/20 13:20:41;;;;;;;25.20;12.50;;;17.20;52.70;;;;;;5249438;28;20242;-62
2022/03/20 13:23:34;;;;;;;21.23;11.33;;;17.20;52.60;;;;;;5248952;28;20243;-64
2022/03/20 13:26:27;;;;;;;23.10;12.03;;;17.20;52.60;;;;;;5248618;28;20579;-62
2022/03/20 13:29:23;;;;;;;22.47;11.13;;;17.10;52.50;;;;;;5247878;28;20219;-62
2022/03/20 13:32:16;;;;;;;20.93;10.93;;;17.20;52.80;;;;;;5249441;28;20208;-62
2022/03/20 13:35:08;;;;;;;20.40;10.93;;;17.10;52.60;;;;;;5249277;28;20202;-62
2022/03/20 13:38:03;;;;;;;20.40;10.37;;;17.10;52.60;;;;;;5249402;28;20220;-62
2022/03/20 13:41:05;;;;;;;19.97;9.73;;;17.10;52.70;;;;;;5249528;28;20196;-55
2022/03/20 13:43:58;;;;;;;19.03;10.07;;;17.10;52.80;;;;;;5247293;28;20191;-62
2022/03/20 13:46:51;;;;;;;19.50;11.00;;;17.10;52.80;;;;;;5249889;28;20200;-62
2022/03/20 13:49:45;;;;;;;18.40;9.90;;;17.10;52.90;;;;;;5249170;28;20227;-62
2022/03/20 13:52:38;;;;;;;18.17;9.27;;;17.10;52.90;;;;;;5251155;28;20192;-61
2022/03/20 13:55:38;;;;;;;19.07;9.67;;;17.00;52.90;;;;;;5247979;28;20193;-62
2022/03/20 13:58:30;;;;;;;17.83;9.30;;;17.10;53.10;;;;;;5247488;28;20212;-62
2022/03/20 14:01:23;;;;;;;17.30;9.80;;;17.10;53.10;;;;;;5248080;28;20196;-62
2022/03/20 14:04:16;;;;;;;16.80;9.37;;;17.00;53.10;;;;;;5248344;28;20197;-62
2022/03/20 14:07:19;;;;;;;17.10;10.07;;;17.00;53.20;;;;;;5247607;28;20663;-63
2022/03/20 14:10:20;;;;;;;15.90;9.10;;;17.00;53.20;;;;;;5227769;28;20223;-61
2022/03/20 14:13:18;;;;;;;15.40;9.57;;;17.00;53.30;;;;;;5244182;28;20302;-62
2022/03/20 14:16:14;;;;;;;16.80;9.10;;;17.00;53.30;;;;;;5249713;28;20201;-62
2022/03/20 14:19:07;;;;;;;16.27;9.63;;;17.00;53.40;;;;;;5239109;28;20302;-67
2022/03/20 14:22:01;;;;;;;16.47;9.20;;;17.00;53.40;;;;;;5246803;28;20196;-66
2022/03/20 14:24:54;;;;;;;15.60;8.67;;;17.00;53.60;;;;;;5246924;28;20192;-64
2022/03/20 14:27:46;;;;;;;13.03;8.23;;;17.00;53.60;;;;;;5248344;28;20192;-65
2022/03/20 14:40:16;;;;;;;14.87;8.40;;;17.10;53.60;;;;;;5246728;28;20237;-67
2022/03/20 14:43:10;;;;;;;14.27;7.87;;;17.10;53.70;;;;;;5245248;28;20203;-66
2022/03/20 14:46:02;;;;;;;13.17;7.40;;;17.10;53.70;;;;;;5247106;28;20200;-67
2022/03/20 14:48:56;;;;;;;12.10;7.60;;;17.10;53.70;;;;;;5248085;28;20695;-67
2022/03/20 14:51:51;;;;;;;11.63;7.37;;;17.10;53.70;;;;;;5268168;28;20203;-68
2022/03/20 14:54:43;;;;;;;12.53;7.93;;;17.10;53.70;;;;;;5266785;28;20198;-68
2022/03/20 14:57:37;;;;;;;11.60;6.97;;;17.10;53.70;;;;;;5246115;28;20281;-65
2022/03/20 15:00:29;;;;;;;10.60;6.77;;;17.20;53.70;;;;;;5246022;28;20193;-66
2022/03/20 15:03:22;;;;;;;10.93;6.97;;;17.10;53.70;;;;;;5236004;28;20200;-67
2022/03/20 15:06:14;;;;;;;10.13;6.67;;;17.10;53.70;;;;;;5244349;28;20197;-66
2022/03/20 15:12:16;;;;;;;9.57;6.23;;;17.10;53.60;;;;;;5244989;28;20219;-68
2022/03/20 15:15:10;;;;;;;9.73;6.63;;;17.10;53.70;;;;;;5247900;28;20196;-68
2022/03/20 15:18:03;;;;;;;9.93;6.40;;;17.10;53.70;;;;;;5245639;28;20219;-66
2022/03/20 15:20:55;;;;;;;10.13;6.30;;;17.10;53.70;;;;;;5244878;28;20192;-66
2022/03/20 15:23:49;;;;;;;11.77;7.17;;;17.10;53.70;;;;;;5246990;28;20579;-66
2022/03/20 15:26:42;;;;;;;10.00;5.90;;;17.10;53.70;;;;;;5244964;28;20781;-67
2022/03/20 15:29:35;;;;;;;8.90;5.77;;;17.10;53.70;;;;;;5244500;28;20730;-66
2022/03/20 15:32:29;;;;;;;9.73;5.47;;;17.20;53.70;;;;;;5246250;28;20633;-66
2022/03/20 15:35:21;;;;;;;8.53;6.00;;;17.10;53.70;;;;;;5244795;28;20568;-66
2022/03/20 15:38:13;;;;;;;9.80;6.00;;;17.10;53.70;;;;;;5245550;28;20215;-66
2022/03/20 15:41:07;;;;;;;10.57;6.47;;;17.20;53.70;;;;;;5245015;28;20257;-66
2022/03/20 15:44:00;;;;;;;10.20;5.47;;;17.10;53.70;;;;;;5244407;28;20185;-66
2022/03/20 15:46:52;;;;;;;9.13;6.27;;;17.20;53.70;;;;;;5243701;28;20658;-66
2022/03/20 15:49:48;;;;;;;8.40;6.10;;;17.20;53.70;;;;;;5248551;28;20215;-67
2022/03/20 15:52:42;;;;;;;8.90;5.80;;;17.10;53.70;;;;;;5245780;28;20185;-66